createdAt,value
2023-04-27T00:00:36.494Z,84.8009
2023-04-27T00:01:44.558Z,86.0914
2023-04-27T00:02:52.801Z,87.2604
2023-04-27T00:04:00.853Z,87.8476
2023-04-27T00:05:09.095Z,88.0895
2023-04-27T00:06:16.978Z,87.6980
2023-04-27T00:07:24.910Z,87.9306
2023-04-27T00:08:32.844Z,88.1775
2023-04-27T00:09:40.891Z,87.8510
2023-04-27T00:10:48.964Z,86.9392
2023-04-27T00:11:57.180Z,87.0152
2023-04-27T00:13:05.179Z,87.4247
2023-04-27T00:14:13.277Z,87.3581
2023-04-27T00:15:21.341Z,86.9632
2023-04-27T00:16:29.434Z,87.2410
2023-04-27T00:17:37.506Z,87.0245
2023-04-27T00:18:45.499Z,87.1243
2023-04-27T00:19:53.561Z,87.5758
2023-04-27T00:21:01.665Z,87.8250
2023-04-27T00:22:09.735Z,87.5981
2023-04-27T00:23:17.634Z,87.8270
2023-04-27T00:24:25.693Z,87.6845
2023-04-27T00:25:33.739Z,87.6713
2023-04-27T00:26:41.999Z,87.5102
2023-04-27T00:27:50.051Z,87.7485
2023-04-27T00:28:58.098Z,87.7989
2023-04-27T00:30:06.158Z,87.7420
2023-04-27T00:31:14.158Z,87.6473
2023-04-27T00:32:22.283Z,87.1592
2023-04-27T00:33:30.352Z,87.2222
2023-04-27T00:34:38.342Z,87.4818
2023-04-27T00:35:46.423Z,87.7504
2023-04-27T00:36:54.477Z,87.7340
2023-04-27T00:38:02.409Z,87.7305
2023-04-27T00:39:10.523Z,88.2610
2023-04-27T00:40:18.554Z,88.4647
2023-04-27T00:41:27.062Z,88.3145
2023-04-27T00:42:34.805Z,88.1087
2023-04-27T00:43:43.078Z,87.2579
2023-04-27T00:44:50.966Z,86.6487
2023-04-27T00:45:58.996Z,86.4131
2023-04-27T00:47:07.260Z,86.0198
2023-04-27T00:48:15.103Z,85.9824
2023-04-27T00:49:23.211Z,85.9645
2023-04-27T00:50:31.301Z,86.8162
2023-04-27T00:51:39.295Z,87.0994
2023-04-27T00:52:47.265Z,87.1326
2023-04-27T00:53:55.326Z,87.6079
2023-04-27T00:55:03.391Z,87.4720
2023-04-27T00:56:11.856Z,87.2015
2023-04-27T00:57:19.606Z,86.5891
2023-04-27T00:58:27.726Z,85.9440
2023-04-27T00:59:35.767Z,85.3829
2023-04-27T01:00:43.824Z,85.1797
2023-04-27T01:01:51.918Z,85.3798
2023-04-27T01:03:00.056Z,85.5871
2023-04-27T01:04:08.267Z,85.7716
2023-04-27T01:05:16.068Z,86.3334
2023-04-27T01:06:24.112Z,86.1159
2023-04-27T01:07:32.109Z,86.4297
2023-04-27T01:08:40.154Z,86.2126
2023-04-27T01:09:48.217Z,86.4155
2023-04-27T01:10:56.346Z,86.3090
2023-04-27T01:12:04.621Z,86.3849
2023-04-27T01:13:12.658Z,86.4891
2023-04-27T01:14:20.572Z,86.5135
2023-04-27T01:15:28.695Z,87.0936
2023-04-27T01:16:36.802Z,87.3585
2023-04-27T01:17:44.792Z,87.7197
2023-04-27T01:18:53.028Z,88.0195
2023-04-27T01:20:00.905Z,87.7499
2023-04-27T01:21:08.966Z,87.4169
2023-04-27T01:22:16.901Z,87.0901
2023-04-27T01:23:25.002Z,87.0154
2023-04-27T01:24:33.072Z,87.3248
2023-04-27T01:25:41.232Z,87.7152
2023-04-27T01:26:49.361Z,88.2258
2023-04-27T01:27:57.493Z,88.3028
2023-04-27T01:29:05.422Z,88.2931
2023-04-27T01:30:13.492Z,87.9135
2023-04-27T01:31:21.593Z,88.0035
2023-04-27T01:32:29.631Z,87.9558
2023-04-27T01:33:37.670Z,88.2700
2023-04-27T01:34:45.748Z,87.8798
2023-04-27T01:35:53.954Z,87.6709
2023-04-27T01:37:01.743Z,87.6601
2023-04-27T01:38:09.817Z,87.6332
2023-04-27T01:39:17.878Z,87.7780
2023-04-27T01:40:26.125Z,88.2842
2023-04-27T01:41:34.175Z,88.5796
2023-04-27T01:42:42.451Z,88.6976
2023-04-27T01:43:50.370Z,88.6833
2023-04-27T01:44:58.321Z,88.8515
2023-04-27T01:46:06.399Z,88.9153
2023-04-27T01:47:14.473Z,88.9916
2023-04-27T01:48:22.465Z,89.0024
2023-04-27T01:49:30.604Z,89.1801
2023-04-27T01:50:38.661Z,89.3464
2023-04-27T01:51:46.548Z,89.4190
2023-04-27T01:52:54.661Z,89.7486
2023-04-27T01:54:02.662Z,89.8556
2023-04-27T01:55:11.030Z,89.5088
2023-04-27T01:56:18.934Z,89.0989
2023-04-27T01:57:27.076Z,89.0454
2023-04-27T01:58:35.133Z,89.6711
2023-04-27T01:59:43.235Z,90.1667
2023-04-27T02:00:51.204Z,90.1750
2023-04-27T02:01:59.289Z,89.8308
2023-04-27T02:03:07.483Z,89.8529
2023-04-27T02:04:15.719Z,89.7751
2023-04-27T02:05:23.322Z,89.3531
2023-04-27T02:06:31.407Z,88.4583
2023-04-27T02:07:39.462Z,88.1817
2023-04-27T02:08:47.773Z,88.7669
2023-04-27T02:09:55.797Z,89.4348
2023-04-27T02:11:03.762Z,89.6291
2023-04-27T02:12:11.946Z,89.4414
2023-04-27T02:13:19.888Z,89.7922
2023-04-27T02:14:27.971Z,89.5347
2023-04-27T02:15:36.152Z,89.0985
2023-04-27T02:16:44.113Z,89.1937
2023-04-27T02:17:52.192Z,89.8956
2023-04-27T02:19:00.215Z,90.5245
2023-04-27T02:20:08.153Z,90.8412
2023-04-27T02:21:16.245Z,90.6010
2023-04-27T02:22:24.271Z,90.0059
2023-04-27T02:23:32.449Z,90.3518
2023-04-27T02:24:40.640Z,90.8886
2023-04-27T02:25:48.580Z,91.2513
2023-04-27T02:26:56.849Z,91.4169
2023-04-27T02:28:04.692Z,91.3597
2023-04-27T02:29:13.060Z,91.6683
2023-04-27T02:30:20.889Z,91.6390
2023-04-27T02:31:29.056Z,91.6407
2023-04-27T02:32:36.997Z,91.3120
2023-04-27T02:33:44.997Z,90.9442
2023-04-27T02:34:52.959Z,90.5889
2023-04-27T02:36:01.008Z,90.3103
2023-04-27T02:37:09.033Z,90.0920
2023-04-27T02:38:17.299Z,89.8764
2023-04-27T02:39:25.309Z,89.5218
2023-04-27T02:40:33.504Z,89.3897
2023-04-27T02:41:41.457Z,89.0220
2023-04-27T02:42:49.522Z,88.9195
2023-04-27T02:43:57.606Z,89.8894
2023-04-27T02:45:05.675Z,90.1402
2023-04-27T02:46:13.740Z,90.2671
2023-04-27T02:47:21.762Z,90.4066
2023-04-27T02:48:29.926Z,90.8071
2023-04-27T02:49:38.176Z,91.1695
2023-04-27T02:50:45.793Z,91.3525
2023-04-27T02:51:53.863Z,91.2634
2023-04-27T02:53:02.082Z,90.7640
2023-04-27T02:54:10.143Z,90.5953
2023-04-27T02:55:18.257Z,90.9937
2023-04-27T02:56:26.425Z,90.7637
2023-04-27T02:57:34.305Z,90.4860
2023-04-27T02:58:42.393Z,90.8735
2023-04-27T02:59:50.459Z,91.1247
2023-04-27T03:00:58.561Z,91.3148
2023-04-27T03:02:06.587Z,90.8179
2023-04-27T03:03:14.905Z,90.5966
2023-04-27T03:04:22.624Z,90.5291
2023-04-27T03:05:30.630Z,90.5223
2023-04-27T03:06:38.707Z,90.5815
2023-04-27T03:07:46.934Z,89.9604
2023-04-27T03:08:54.955Z,89.2920
2023-04-27T03:10:02.969Z,88.9554
2023-04-27T03:11:11.113Z,88.9875
2023-04-27T03:12:19.300Z,89.3309
2023-04-27T03:13:27.198Z,89.0539
2023-04-27T03:14:35.252Z,88.9869
2023-04-27T03:15:43.549Z,88.7307
2023-04-27T03:16:51.511Z,88.3800
2023-04-27T03:17:59.521Z,87.9636
2023-04-27T03:19:07.385Z,87.9496
2023-04-27T03:20:15.440Z,87.8567
2023-04-27T03:21:23.476Z,87.6601
2023-04-27T03:22:31.748Z,87.6113
2023-04-27T03:23:39.775Z,87.8186
2023-04-27T03:24:47.841Z,88.1695
2023-04-27T03:25:55.916Z,88.2822
2023-04-27T03:27:03.904Z,88.2575
2023-04-27T03:28:12.126Z,89.0579
2023-04-27T03:29:20.095Z,89.5621
2023-04-27T03:30:28.134Z,89.9142
2023-04-27T03:31:36.236Z,90.2417
2023-04-27T03:32:47.039Z,90.3915
2023-04-27T03:33:57.063Z,90.1679
2023-04-27T03:35:05.134Z,90.4112
2023-04-27T03:36:13.165Z,90.9423
2023-04-27T03:37:21.345Z,91.2612
2023-04-27T03:38:29.421Z,91.7781
2023-04-27T03:39:37.484Z,91.9408
2023-04-27T03:40:45.582Z,92.1469
2023-04-27T03:41:53.668Z,91.9680
2023-04-27T03:43:01.685Z,92.0126
2023-04-27T03:44:09.852Z,92.1952
2023-04-27T03:45:17.782Z,92.5539
2023-04-27T03:46:25.979Z,92.1283
2023-04-27T03:47:33.977Z,91.3726
2023-04-27T03:48:41.829Z,90.9244
2023-04-27T03:49:49.914Z,90.7014
2023-04-27T03:50:58.056Z,90.5262
2023-04-27T03:52:06.208Z,90.3140
2023-04-27T03:53:14.225Z,90.2463
2023-04-27T03:54:22.245Z,90.3464
2023-04-27T03:55:30.353Z,90.4603
2023-04-27T03:56:38.481Z,90.3155
2023-04-27T03:57:46.586Z,90.1313
2023-04-27T03:58:54.591Z,90.2004
2023-04-27T04:00:02.687Z,90.4128
2023-04-27T04:01:11.116Z,90.3204
2023-04-27T04:02:18.709Z,90.1353
2023-04-27T04:03:26.958Z,90.0324
2023-04-27T04:04:34.953Z,89.9138
2023-04-27T04:05:42.911Z,89.8614
2023-04-27T04:06:51.025Z,89.7223
2023-04-27T04:07:59.039Z,89.5053
2023-04-27T04:09:07.285Z,89.4465
2023-04-27T04:10:15.161Z,89.9708
2023-04-27T04:11:23.264Z,90.2766
2023-04-27T04:12:31.314Z,90.3866
2023-04-27T04:13:39.422Z,90.5038
2023-04-27T04:14:47.535Z,90.4757
2023-04-27T04:15:55.658Z,90.1793
2023-04-27T04:17:03.449Z,89.9378
2023-04-27T04:18:11.555Z,90.0153
2023-04-27T04:19:20.760Z,90.2375
2023-04-27T04:20:32.677Z,90.8773
2023-04-27T04:21:40.683Z,91.0557
2023-04-27T04:22:48.777Z,91.3911
2023-04-27T04:23:56.845Z,91.7158
2023-04-27T04:25:04.962Z,91.3746
2023-04-27T04:26:12.974Z,91.1441
2023-04-27T04:27:20.988Z,90.8433
2023-04-27T04:28:29.015Z,90.3737
2023-04-27T04:29:37.082Z,90.2351
2023-04-27T04:30:45.019Z,90.0617
2023-04-27T04:31:53.176Z,89.8706
2023-04-27T04:33:01.177Z,89.3463
2023-04-27T04:34:09.342Z,89.2105
2023-04-27T04:35:17.392Z,88.9714
2023-04-27T04:36:25.428Z,88.9579
2023-04-27T04:37:33.537Z,88.9572
2023-04-27T04:38:41.583Z,89.1871
2023-04-27T04:39:49.655Z,89.3773
2023-04-27T04:40:57.833Z,89.5219
2023-04-27T04:42:05.810Z,89.9280
2023-04-27T04:43:13.801Z,89.8949
2023-04-27T04:44:21.865Z,89.8455
2023-04-27T04:45:29.812Z,89.7899
2023-04-27T04:46:37.947Z,89.9764
2023-04-27T04:47:45.938Z,90.1535
2023-04-27T04:48:54.847Z,89.9030
2023-04-27T04:50:02.418Z,89.7257
2023-04-27T04:51:10.216Z,89.2112
2023-04-27T04:52:18.438Z,89.6330
2023-04-27T04:53:26.280Z,90.0623
2023-04-27T04:54:34.414Z,90.2305
2023-04-27T04:55:42.475Z,90.5004
2023-04-27T04:56:50.632Z,90.6414
2023-04-27T04:57:58.622Z,90.5315
2023-04-27T04:59:06.571Z,90.1410
2023-04-27T05:00:14.603Z,90.3574
2023-04-27T05:01:22.673Z,90.5373
2023-04-27T05:02:30.756Z,90.3851
2023-04-27T05:03:38.960Z,89.9910
2023-04-27T05:04:47.143Z,89.6714
2023-04-27T05:05:55.113Z,89.4949
2023-04-27T05:07:03.090Z,89.6968
2023-04-27T05:08:11.062Z,90.0218
2023-04-27T05:09:19.178Z,90.0212
2023-04-27T05:10:27.194Z,89.7425
2023-04-27T05:11:35.353Z,89.5559
2023-04-27T05:12:43.356Z,89.3436
2023-04-27T05:13:51.477Z,89.2942
2023-04-27T05:14:59.338Z,89.0665
2023-04-27T05:16:07.468Z,89.0996
2023-04-27T05:17:15.493Z,89.1008
2023-04-27T05:18:23.633Z,89.3983
2023-04-27T05:19:31.776Z,89.3946
2023-04-27T05:20:39.735Z,89.3548
2023-04-27T05:21:47.987Z,89.1664
2023-04-27T05:22:55.889Z,89.2324
2023-04-27T05:24:03.927Z,89.9055
2023-04-27T05:25:12.097Z,90.0638
2023-04-27T05:26:20.045Z,90.4124
2023-04-27T05:27:28.096Z,90.6360
2023-04-27T05:28:36.177Z,90.5573
2023-04-27T05:29:44.103Z,90.5951
2023-04-27T05:30:52.201Z,90.4964
2023-04-27T05:32:00.357Z,90.4025
2023-04-27T05:33:08.449Z,90.6489
2023-04-27T05:34:16.597Z,90.7821
2023-04-27T05:35:24.569Z,90.9267
2023-04-27T05:36:32.609Z,90.5689
2023-04-27T05:37:40.572Z,90.5788
2023-04-27T05:38:48.693Z,90.8593
2023-04-27T05:39:56.813Z,90.7644
2023-04-27T05:41:04.826Z,90.2433
2023-04-27T05:42:12.867Z,90.0165
2023-04-27T05:43:20.963Z,90.3729
2023-04-27T05:44:28.911Z,90.4539
2023-04-27T05:45:37.005Z,90.5677
2023-04-27T05:46:45.013Z,90.7634
2023-04-27T05:47:53.232Z,90.5373
2023-04-27T05:49:01.361Z,90.6547
2023-04-27T05:50:09.353Z,90.5512
2023-04-27T05:51:17.394Z,90.6056
2023-04-27T05:52:25.375Z,90.6407
2023-04-27T05:53:33.496Z,90.4473
2023-04-27T05:54:41.487Z,90.1308
2023-04-27T05:55:49.682Z,90.0499
2023-04-27T05:56:57.704Z,90.2388
2023-04-27T05:58:08.963Z,90.3715
2023-04-27T05:59:18.470Z,90.5125
2023-04-27T06:00:26.554Z,90.6040
2023-04-27T06:01:34.588Z,90.5201
2023-04-27T06:02:42.956Z,90.5676
2023-04-27T06:03:50.924Z,90.3545
2023-04-27T06:04:59.086Z,90.4270
2023-04-27T06:06:06.904Z,90.4064
2023-04-27T06:07:16.153Z,90.0892
2023-04-27T06:08:23.112Z,89.9536
2023-04-27T06:09:31.069Z,89.2217
2023-04-27T06:10:39.108Z,88.2224
2023-04-27T06:11:47.233Z,88.0300
2023-04-27T06:12:55.347Z,88.2748
2023-04-27T06:14:03.255Z,88.3783
2023-04-27T06:15:11.287Z,88.7783
2023-04-27T06:16:19.449Z,89.0272
2023-04-27T06:17:27.508Z,89.1342
2023-04-27T06:18:35.559Z,89.1347
2023-04-27T06:19:43.646Z,89.1523
2023-04-27T06:20:51.790Z,88.7731
2023-04-27T06:21:59.709Z,88.1214
2023-04-27T06:23:07.789Z,88.0834
2023-04-27T06:24:15.848Z,87.6405
2023-04-27T06:25:27.074Z,86.5673
2023-04-27T06:26:36.862Z,85.8414
2023-04-27T06:27:44.788Z,85.7951
2023-04-27T06:28:52.847Z,86.4385
2023-04-27T06:30:01.043Z,87.2279
2023-04-27T06:31:09.109Z,87.6586
2023-04-27T06:32:17.081Z,87.6904
2023-04-27T06:33:25.109Z,87.6583
2023-04-27T06:34:33.174Z,87.4379
2023-04-27T06:35:41.250Z,86.5296
2023-04-27T06:36:49.338Z,86.3454
2023-04-27T06:37:57.471Z,86.4291
2023-04-27T06:39:05.409Z,86.7676
2023-04-27T06:40:13.485Z,87.3151
2023-04-27T06:41:21.659Z,87.5595
2023-04-27T06:42:29.588Z,86.9748
2023-04-27T06:43:37.569Z,86.0366
2023-04-27T06:44:45.705Z,86.1152
2023-04-27T06:45:53.906Z,86.3436
2023-04-27T06:47:01.848Z,85.7634
2023-04-27T06:48:10.012Z,85.3803
2023-04-27T06:49:17.939Z,85.1460
2023-04-27T06:50:26.027Z,85.3470
2023-04-27T06:51:34.120Z,85.2426
2023-04-27T06:52:42.320Z,85.4032
2023-04-27T06:53:50.258Z,85.5879
2023-04-27T06:54:58.278Z,86.1430
2023-04-27T06:56:06.309Z,86.3852
2023-04-27T06:57:14.310Z,85.6103
2023-04-27T06:58:22.359Z,85.1602
2023-04-27T06:59:30.412Z,85.1615
2023-04-27T07:00:38.518Z,84.8079
2023-04-27T07:01:46.561Z,85.1179
2023-04-27T07:02:54.673Z,85.5955
2023-04-27T07:04:02.780Z,85.5294
2023-04-27T07:05:10.721Z,85.7800
2023-04-27T07:06:18.833Z,85.6055
2023-04-27T07:07:26.909Z,85.2942
2023-04-27T07:08:35.034Z,85.6121
2023-04-27T07:09:43.113Z,85.8126
2023-04-27T07:10:51.136Z,85.9719
2023-04-27T07:11:59.226Z,86.0295
2023-04-27T07:13:09.119Z,86.3241
2023-04-27T07:14:20.077Z,86.4083
2023-04-27T07:15:28.154Z,86.4883
2023-04-27T07:16:36.274Z,86.0894
2023-04-27T07:17:44.261Z,85.6020
2023-04-27T07:18:52.336Z,85.4115
2023-04-27T07:20:00.376Z,85.5694
2023-04-27T07:21:08.549Z,85.9916
2023-04-27T07:22:16.518Z,85.6738
2023-04-27T07:23:24.569Z,85.7721
2023-04-27T07:24:32.690Z,86.1958
2023-04-27T07:25:40.563Z,86.5081
2023-04-27T07:26:48.654Z,85.4461
2023-04-27T07:27:56.704Z,84.4536
2023-04-27T07:29:14.439Z,84.1656
2023-04-27T07:30:17.910Z,83.3982
2023-04-27T07:31:26.301Z,81.9773
2023-04-27T07:32:33.983Z,80.7629
2023-04-27T07:33:42.006Z,81.1098
2023-04-27T07:34:54.082Z,81.5283
2023-04-27T07:36:02.922Z,80.6823
2023-04-27T07:37:11.027Z,79.7822
2023-04-27T07:38:18.976Z,79.6044
2023-04-27T07:39:27.057Z,80.2318
2023-04-27T07:40:35.059Z,78.9075
2023-04-27T07:41:43.223Z,78.6295
2023-04-27T07:42:51.289Z,78.7676
2023-04-27T07:43:59.395Z,78.4353
2023-04-27T07:45:07.514Z,77.8467
2023-04-27T07:46:15.459Z,76.6962
2023-04-27T07:47:23.574Z,77.8518
2023-04-27T07:48:31.544Z,79.3604
2023-04-27T07:49:39.642Z,78.6256
2023-04-27T07:50:47.646Z,76.8826
2023-04-27T07:51:55.782Z,75.8311
2023-04-27T07:53:03.791Z,74.9772
2023-04-27T07:54:11.774Z,75.4316
2023-04-27T07:55:19.859Z,74.2536
2023-04-27T07:56:28.055Z,73.8989
2023-04-27T07:57:36.139Z,74.4419
2023-04-27T07:58:44.076Z,73.7619
2023-04-27T07:59:52.184Z,73.4413
2023-04-27T08:01:00.194Z,73.7032
2023-04-27T08:02:19.113Z,73.6419
2023-04-27T08:03:21.231Z,71.7915
2023-04-27T08:04:29.406Z,70.8619
2023-04-27T08:05:37.490Z,71.1679
2023-04-27T08:06:45.880Z,71.1578
2023-04-27T08:07:53.990Z,72.1155
2023-04-27T08:09:01.550Z,71.3385
2023-04-27T08:10:09.589Z,73.1139
2023-04-27T08:11:17.629Z,74.2428
2023-04-27T08:12:25.639Z,75.3869
2023-04-27T08:13:33.893Z,74.7019
2023-04-27T08:14:41.753Z,74.2449
2023-04-27T08:15:49.825Z,73.2268
2023-04-27T08:16:58.027Z,71.5604
2023-04-27T08:18:05.991Z,69.5865
2023-04-27T08:19:14.207Z,67.6927
2023-04-27T08:20:21.937Z,67.4656
2023-04-27T08:21:29.989Z,70.0473
2023-04-27T08:22:38.063Z,70.7377
2023-04-27T08:23:46.106Z,70.1503
2023-04-27T08:24:54.211Z,69.3331
2023-04-27T08:26:02.311Z,68.6521
2023-04-27T08:27:10.264Z,69.2252
2023-04-27T08:28:18.428Z,69.5577
2023-04-27T08:29:28.813Z,70.2056
2023-04-27T08:30:39.482Z,71.5161
2023-04-27T08:31:47.529Z,69.3802
2023-04-27T08:32:55.559Z,69.7538
2023-04-27T08:34:03.449Z,70.3550
2023-04-27T08:35:11.546Z,68.1842
2023-04-27T08:36:19.584Z,66.9143
2023-04-27T08:37:27.753Z,66.1590
2023-04-27T08:38:35.842Z,65.7705
2023-04-27T08:39:43.804Z,65.7963
2023-04-27T08:40:51.897Z,66.4459
2023-04-27T08:42:00.014Z,67.5698
2023-04-27T08:43:08.008Z,68.0304
2023-04-27T08:44:16.107Z,66.7026
2023-04-27T08:45:24.115Z,66.6577
2023-04-27T08:46:32.163Z,68.1386
2023-04-27T08:47:43.421Z,68.7531
2023-04-27T08:48:53.059Z,69.4151
2023-04-27T08:50:01.121Z,68.1929
2023-04-27T08:51:09.121Z,67.1500
2023-04-27T08:52:17.356Z,66.0943
2023-04-27T08:53:25.404Z,66.8476
2023-04-27T08:54:33.313Z,67.0568
2023-04-27T08:55:41.496Z,66.7128
2023-04-27T08:56:49.519Z,67.6444
2023-04-27T08:57:57.590Z,68.2728
2023-04-27T08:59:05.661Z,67.5605
2023-04-27T09:00:13.711Z,67.0133
2023-04-27T09:01:21.944Z,64.7839
2023-04-27T09:02:30.036Z,64.3926
2023-04-27T09:03:37.995Z,63.8641
2023-04-27T09:04:45.909Z,64.6731
2023-04-27T09:06:04.369Z,66.4268
2023-04-27T09:07:06.897Z,66.3325
2023-04-27T09:08:14.975Z,67.7647
2023-04-27T09:09:23.008Z,67.5289
2023-04-27T09:10:31.283Z,69.0280
2023-04-27T09:11:39.165Z,68.4915
2023-04-27T09:12:47.222Z,67.5295
2023-04-27T09:13:55.225Z,67.3714
2023-04-27T09:15:03.308Z,67.9467
2023-04-27T09:16:11.523Z,68.9386
2023-04-27T09:17:19.339Z,67.7464
2023-04-27T09:18:27.321Z,67.7343
2023-04-27T09:19:35.406Z,67.4374
2023-04-27T09:20:43.552Z,66.1219
2023-04-27T09:21:51.714Z,66.4396
2023-04-27T09:22:59.871Z,66.2233
2023-04-27T09:24:07.744Z,66.1967
2023-04-27T09:25:15.779Z,66.6377
2023-04-27T09:26:23.795Z,64.7810
2023-04-27T09:27:31.824Z,63.7345
2023-04-27T09:28:39.944Z,64.0222
2023-04-27T09:29:48.192Z,64.7061
2023-04-27T09:30:56.055Z,64.9333
2023-04-27T09:32:04.181Z,63.8008
2023-04-27T09:33:12.081Z,62.4553
2023-04-27T09:34:20.122Z,62.2507
2023-04-27T09:35:28.358Z,63.4806
2023-04-27T09:36:36.226Z,65.4998
2023-04-27T09:37:44.426Z,63.8091
2023-04-27T09:38:52.490Z,62.8920
2023-04-27T09:40:00.449Z,64.0715
2023-04-27T09:41:08.594Z,62.4910
2023-04-27T09:42:16.515Z,61.3771
2023-04-27T09:43:24.633Z,62.0309
2023-04-27T09:44:32.917Z,62.7641
2023-04-27T09:45:40.856Z,62.0456
2023-04-27T09:46:48.743Z,62.8628
2023-04-27T09:47:56.887Z,63.3096
2023-04-27T09:49:04.843Z,63.1266
2023-04-27T09:50:12.916Z,62.9911
2023-04-27T09:51:21.071Z,63.1121
2023-04-27T09:52:29.186Z,61.9153
2023-04-27T09:53:37.077Z,61.2299
2023-04-27T09:54:45.234Z,61.6961
2023-04-27T09:55:53.435Z,59.6643
2023-04-27T09:57:01.347Z,60.3553
2023-04-27T09:58:09.375Z,60.5988
2023-04-27T09:59:17.449Z,61.0924
2023-04-27T10:00:25.469Z,58.6299
2023-04-27T10:01:35.274Z,58.6452
2023-04-27T10:02:53.068Z,58.2810
2023-04-27T10:03:59.443Z,57.7271
2023-04-27T10:05:07.364Z,57.5790
2023-04-27T10:06:15.471Z,58.3188
2023-04-27T10:07:23.566Z,58.3252
2023-04-27T10:08:31.891Z,58.0064
2023-04-27T10:09:39.670Z,57.9566
2023-04-27T10:10:47.698Z,56.7766
2023-04-27T10:11:55.727Z,56.5208
2023-04-27T10:13:03.883Z,56.2169
2023-04-27T10:14:11.790Z,53.4462
2023-04-27T10:15:19.836Z,53.5092
2023-04-27T10:16:27.909Z,54.7437
2023-04-27T10:17:36.116Z,54.4712
2023-04-27T10:18:44.052Z,52.5880
2023-04-27T10:19:54.305Z,50.4444
2023-04-27T10:21:05.024Z,51.7032
2023-04-27T10:22:13.166Z,52.7271
2023-04-27T10:23:21.361Z,52.2108
2023-04-27T10:24:29.227Z,50.5767
2023-04-27T10:25:37.323Z,50.6711
2023-04-27T10:26:45.299Z,50.5195
2023-04-27T10:27:53.370Z,50.9094
2023-04-27T10:29:01.324Z,53.1501
2023-04-27T10:30:09.405Z,54.7194
2023-04-27T10:31:17.603Z,55.1479
2023-04-27T10:32:25.683Z,54.7045
2023-04-27T10:33:33.639Z,52.1433
2023-04-27T10:34:41.662Z,50.1126
2023-04-27T10:35:49.856Z,52.4203
2023-04-27T10:36:57.788Z,52.4812
2023-04-27T10:38:05.845Z,53.3529
2023-04-27T10:39:14.217Z,52.8728
2023-04-27T10:40:21.988Z,50.7563
2023-04-27T10:41:30.099Z,50.8498
2023-04-27T10:42:37.974Z,50.4931
2023-04-27T10:43:46.035Z,49.3442
2023-04-27T10:44:54.106Z,48.5891
2023-04-27T10:46:02.346Z,47.3480
2023-04-27T10:47:10.297Z,45.5933
2023-04-27T10:48:18.270Z,46.5837
2023-04-27T10:49:26.441Z,47.1514
2023-04-27T10:50:34.607Z,47.2730
2023-04-27T10:51:42.592Z,46.5249
2023-04-27T10:52:50.636Z,46.7404
2023-04-27T10:53:58.632Z,48.2738
2023-04-27T10:55:06.679Z,47.1296
2023-04-27T10:56:14.741Z,48.0192
2023-04-27T10:57:22.712Z,47.6971
2023-04-27T10:58:41.421Z,47.2202
2023-04-27T10:59:43.960Z,46.9524
2023-04-27T11:00:51.749Z,45.8196
2023-04-27T11:01:59.884Z,46.6428
2023-04-27T11:03:08.037Z,44.1272
2023-04-27T11:04:16.478Z,43.9533
2023-04-27T11:05:24.058Z,41.9511
2023-04-27T11:06:32.194Z,41.8061
2023-04-27T11:07:40.182Z,43.0062
2023-04-27T11:08:48.231Z,44.0144
2023-04-27T11:09:56.284Z,42.0386
2023-04-27T11:11:04.241Z,41.6040
2023-04-27T11:12:12.289Z,38.8405
2023-04-27T11:13:20.393Z,40.8505
2023-04-27T11:14:28.498Z,39.3299
2023-04-27T11:15:36.624Z,40.2332
2023-04-27T11:16:44.687Z,41.3488
2023-04-27T11:17:52.729Z,42.6242
2023-04-27T11:19:00.718Z,43.4504
2023-04-27T11:20:08.801Z,43.6726
2023-04-27T11:21:16.904Z,45.3981
2023-04-27T11:22:24.880Z,46.7398
2023-04-27T11:23:33.060Z,47.2122
2023-04-27T11:24:40.999Z,45.6531
2023-04-27T11:25:48.978Z,46.4606
2023-04-27T11:26:57.074Z,46.7455
2023-04-27T11:28:05.116Z,49.7680
2023-04-27T11:29:13.653Z,51.4652
2023-04-27T11:30:21.311Z,50.7455
2023-04-27T11:31:29.402Z,51.4893
2023-04-27T11:32:37.566Z,51.5150
2023-04-27T11:33:45.457Z,50.5952
2023-04-27T11:34:54.657Z,48.8905
2023-04-27T11:36:06.432Z,49.8661
2023-04-27T11:37:18.429Z,50.3905
2023-04-27T11:38:27.487Z,48.6166
2023-04-27T11:39:35.382Z,46.4564
2023-04-27T11:40:43.435Z,46.5239
2023-04-27T11:41:51.630Z,47.6867
2023-04-27T11:42:59.675Z,47.9760
2023-04-27T11:44:07.758Z,46.6314
2023-04-27T11:45:15.787Z,45.0875
2023-04-27T11:46:23.839Z,44.6717
2023-04-27T11:47:31.935Z,46.0251
2023-04-27T11:48:39.921Z,45.9729
2023-04-27T11:49:47.998Z,43.2544
2023-04-27T11:50:56.110Z,43.0151
2023-04-27T11:52:04.093Z,42.3806
2023-04-27T11:53:12.034Z,42.2982
2023-04-27T11:54:20.082Z,40.3142
2023-04-27T11:55:28.189Z,39.4796
2023-04-27T11:56:36.470Z,40.9005
2023-04-27T11:57:44.401Z,42.3451
2023-04-27T11:58:52.314Z,41.6925
2023-04-27T12:00:00.646Z,39.3357
2023-04-27T12:01:08.587Z,41.0342
2023-04-27T12:02:16.620Z,38.6157
2023-04-27T12:03:24.984Z,36.2812
2023-04-27T12:04:32.907Z,34.9030
2023-04-27T12:05:40.954Z,35.9971
2023-04-27T12:06:48.855Z,36.1568
2023-04-27T12:07:56.877Z,37.5655
2023-04-27T12:09:04.986Z,38.6003
2023-04-27T12:10:12.879Z,39.8364
2023-04-27T12:11:20.965Z,40.1015
2023-04-27T12:12:29.034Z,40.2056
2023-04-27T12:13:37.186Z,41.3307
2023-04-27T12:14:45.352Z,40.2876
2023-04-27T12:15:53.572Z,40.3854
2023-04-27T12:17:01.473Z,39.8242
2023-04-27T12:18:09.602Z,37.9471
2023-04-27T12:19:17.640Z,38.0342
2023-04-27T12:20:25.718Z,38.9692
2023-04-27T12:21:33.611Z,38.1408
2023-04-27T12:22:41.717Z,37.2827
2023-04-27T12:23:49.863Z,36.1522
2023-04-27T12:24:57.734Z,35.5742
2023-04-27T12:26:05.806Z,34.7120
2023-04-27T12:27:13.858Z,34.9645
2023-04-27T12:28:22.003Z,36.8170
2023-04-27T12:29:29.998Z,36.3087
2023-04-27T12:30:38.156Z,35.2466
2023-04-27T12:31:46.256Z,35.4196
2023-04-27T12:32:54.416Z,35.0477
2023-04-27T12:34:02.304Z,34.2183
2023-04-27T12:35:10.494Z,35.1107
2023-04-27T12:36:18.567Z,34.6196
2023-04-27T12:37:27.146Z,35.8882
2023-04-27T12:38:34.440Z,35.4300
2023-04-27T12:39:42.516Z,36.5593
2023-04-27T12:40:50.608Z,34.7976
2023-04-27T12:41:58.806Z,35.4833
2023-04-27T12:43:06.734Z,36.2264
2023-04-27T12:44:15.068Z,35.2323
2023-04-27T12:45:22.905Z,35.6749
2023-04-27T12:46:30.995Z,35.0740
2023-04-27T12:47:58.345Z,35.2794
2023-04-27T12:48:51.985Z,34.3633
2023-04-27T12:50:00.013Z,34.9419
2023-04-27T12:51:08.242Z,34.3132
2023-04-27T12:52:16.132Z,34.4963
2023-04-27T12:53:24.150Z,33.4475
2023-04-27T12:54:32.240Z,32.8738
2023-04-27T12:55:40.433Z,33.7262
2023-04-27T12:56:48.385Z,32.7788
2023-04-27T12:57:56.545Z,33.2266
2023-04-27T12:59:04.604Z,32.9245
2023-04-27T13:00:12.690Z,32.7596
2023-04-27T13:01:20.634Z,33.5718
2023-04-27T13:02:28.938Z,33.5371
2023-04-27T13:03:37.095Z,34.9258
2023-04-27T13:04:45.055Z,36.4779
2023-04-27T13:05:53.028Z,36.7974
2023-04-27T13:07:00.938Z,36.3355
2023-04-27T13:08:08.997Z,35.5543
2023-04-27T13:09:17.099Z,37.8240
2023-04-27T13:10:25.226Z,36.5353
2023-04-27T13:11:33.282Z,36.7242
2023-04-27T13:12:41.608Z,35.5001
2023-04-27T13:13:49.411Z,33.9507
2023-04-27T13:14:57.547Z,34.8708
2023-04-27T13:16:05.598Z,37.4395
2023-04-27T13:17:13.627Z,36.9207
2023-04-27T13:18:21.663Z,36.4594
2023-04-27T13:19:29.725Z,37.3659
2023-04-27T13:20:38.002Z,37.0925
2023-04-27T13:21:45.709Z,36.7159
2023-04-27T13:22:53.773Z,37.6471
2023-04-27T13:24:01.841Z,37.1326
2023-04-27T13:25:10.020Z,38.8868
2023-04-27T13:26:17.968Z,37.4627
2023-04-27T13:27:26.421Z,38.0910
2023-04-27T13:28:34.161Z,39.1263
2023-04-27T13:29:42.249Z,40.9810
2023-04-27T13:30:50.251Z,40.3549
2023-04-27T13:31:58.384Z,39.3135
2023-04-27T13:33:21.096Z,37.8262
2023-04-27T13:34:19.322Z,36.5221
2023-04-27T13:35:27.413Z,34.8881
2023-04-27T13:36:35.306Z,34.9158
2023-04-27T13:37:43.402Z,34.9913
2023-04-27T13:38:51.444Z,33.9761
2023-04-27T13:39:59.634Z,35.3616
2023-04-27T13:41:07.664Z,35.9742
2023-04-27T13:42:15.701Z,34.0978
2023-04-27T13:43:23.806Z,35.1220
2023-04-27T13:44:31.972Z,33.6751